DLH6CH EDDF-EGLL
Flight info
| Callsign | DLH6CH |
|---|---|
| Flight time | 1h 6m |
| Altitude | 38000 |
| Route | OBOKA3M/25C OBOKA Z29 TORNU DCT ABNED L980 LOGAN |
| Aircraft | A320/M-SDE3FGHIRWY/LB1 |
Departure
| Time | 2026-04-17 11:50 |
|---|---|
| Airport | Frankfurt Main Airport (EDDF) |
Arrival
| Time | 2026-04-17 12:56 |
|---|---|
| Airport | London Heathrow Airport (EGLL) |
| Time | Latitude | Longitude | Altitude | Speed | Heading |
|---|---|---|---|---|---|
| 2026-04-17 11:27 | 50.04653 | 8.57058 | 346 ft | 0 kts | 91° |
| 2026-04-17 11:40 | 50.04653 | 8.57039 | 345 ft | 2 kts | 92° |
| 2026-04-17 11:40 | 50.04654 | 8.57013 | 345 ft | 2 kts | 95° |
| 2026-04-17 11:40 | 50.04656 | 8.56988 | 345 ft | 2 kts | 100° |
| 2026-04-17 11:40 | 50.04660 | 8.56963 | 345 ft | 2 kts | 121° |
| 2026-04-17 11:41 | 50.04672 | 8.56949 | 345 ft | 2 kts | 203° |
| 2026-04-17 11:41 | 50.04663 | 8.56942 | 345 ft | 2 kts | 201° |
| 2026-04-17 11:41 | 50.04649 | 8.56936 | 345 ft | 2 kts | 198° |
| 2026-04-17 11:41 | 50.04635 | 8.56928 | 345 ft | 2 kts | 198° |
| 2026-04-17 11:42 | 50.04621 | 8.56921 | 345 ft | 2 kts | 198° |
| 2026-04-17 11:42 | 50.04607 | 8.56915 | 345 ft | 2 kts | 198° |
| 2026-04-17 11:42 | 50.04596 | 8.56909 | 346 ft | 2 kts | 198° |
| 2026-04-17 11:42 | 50.04582 | 8.56902 | 346 ft | 3 kts | 194° |
| 2026-04-17 11:43 | 50.04565 | 8.56896 | 345 ft | 2 kts | 194° |
| 2026-04-17 11:43 | 50.04564 | 8.56895 | 345 ft | 0 kts | 194° |
| 2026-04-17 11:44 | 50.04545 | 8.56888 | 345 ft | 9 kts | 194° |
| 2026-04-17 11:44 | 50.04508 | 8.56874 | 345 ft | 5 kts | 193° |
| 2026-04-17 11:45 | 50.04443 | 8.56852 | 345 ft | 14 kts | 191° |
| 2026-04-17 11:45 | 50.04347 | 8.56827 | 345 ft | 13 kts | 190° |
| 2026-04-17 11:45 | 50.04276 | 8.56881 | 345 ft | 12 kts | 101° |
| 2026-04-17 11:45 | 50.04298 | 8.56994 | 345 ft | 10 kts | 69° |
| 2026-04-17 11:46 | 50.04321 | 8.57090 | 345 ft | 9 kts | 70° |
| 2026-04-17 11:46 | 50.04340 | 8.57172 | 345 ft | 8 kts | 70° |
| 2026-04-17 11:46 | 50.04370 | 8.57294 | 345 ft | 13 kts | 70° |
| 2026-04-17 11:46 | 50.04398 | 8.57419 | 345 ft | 11 kts | 70° |
| 2026-04-17 11:47 | 50.04424 | 8.57526 | 345 ft | 10 kts | 69° |
| 2026-04-17 11:47 | 50.04446 | 8.57617 | 345 ft | 9 kts | 69° |
| 2026-04-17 11:47 | 50.04491 | 8.57805 | 345 ft | 25 kts | 69° |
| 2026-04-17 11:47 | 50.04552 | 8.58064 | 345 ft | 26 kts | 71° |
| 2026-04-17 11:48 | 50.04615 | 8.58326 | 345 ft | 22 kts | 70° |
| 2026-04-17 11:48 | 50.04654 | 8.58507 | 345 ft | 11 kts | 82° |
| 2026-04-17 11:48 | 50.04615 | 8.58578 | 345 ft | 10 kts | 159° |
| 2026-04-17 11:48 | 50.04553 | 8.58611 | 345 ft | 10 kts | 161° |
| 2026-04-17 11:49 | 50.04494 | 8.58584 | 345 ft | 9 kts | 255° |
| 2026-04-17 11:49 | 50.04463 | 8.58474 | 345 ft | 18 kts | 245° |
| 2026-04-17 11:49 | 50.04330 | 8.57931 | 346 ft | 89 kts | 249° |
| 2026-04-17 11:49 | 50.04046 | 8.56728 | 346 ft | 146 kts | 249° |
| 2026-04-17 11:50 | 50.03642 | 8.55055 | 512 ft | 177 kts | 249° |
| 2026-04-17 11:50 | 50.03194 | 8.53212 | 1104 ft | 183 kts | 249° |
| 2026-04-17 11:50 | 50.02718 | 8.51254 | 1560 ft | 202 kts | 246° |
| 2026-04-17 11:50 | 50.01829 | 8.49577 | 2215 ft | 207 kts | 208° |
| 2026-04-17 11:51 | 50.00464 | 8.48856 | 2942 ft | 209 kts | 195° |
| 2026-04-17 11:51 | 49.99049 | 8.48272 | 3690 ft | 211 kts | 195° |
| 2026-04-17 11:51 | 49.97616 | 8.47685 | 4414 ft | 214 kts | 195° |
| 2026-04-17 11:51 | 49.96162 | 8.47088 | 5137 ft | 217 kts | 195° |
| 2026-04-17 11:52 | 49.94640 | 8.46430 | 5542 ft | 239 kts | 197° |
| 2026-04-17 11:52 | 49.92994 | 8.45660 | 6092 ft | 252 kts | 201° |
| 2026-04-17 11:52 | 49.91471 | 8.44278 | 6822 ft | 257 kts | 222° |
| 2026-04-17 11:52 | 49.90345 | 8.42123 | 7586 ft | 261 kts | 239° |
| 2026-04-17 11:53 | 49.89414 | 8.39689 | 8354 ft | 264 kts | 241° |
| 2026-04-17 11:53 | 49.88765 | 8.37015 | 9066 ft | 268 kts | 258° |
| 2026-04-17 11:53 | 49.88645 | 8.34035 | 9418 ft | 287 kts | 275° |
| 2026-04-17 11:53 | 49.88834 | 8.30901 | 9992 ft | 295 kts | 275° |
| 2026-04-17 11:54 | 49.89187 | 8.27665 | 10255 ft | 316 kts | 286° |
| 2026-04-17 11:54 | 49.90112 | 8.24441 | 10470 ft | 336 kts | 302° |
| 2026-04-17 11:54 | 49.91503 | 8.21472 | 10982 ft | 343 kts | 306° |
| 2026-04-17 11:54 | 49.92939 | 8.18476 | 11578 ft | 347 kts | 306° |
| 2026-04-17 11:55 | 49.94484 | 8.15573 | 12157 ft | 352 kts | 315° |
| 2026-04-17 11:55 | 49.96322 | 8.13043 | 12717 ft | 355 kts | 319° |
| 2026-04-17 11:55 | 49.98206 | 8.10525 | 13250 ft | 359 kts | 319° |
| 2026-04-17 11:55 | 50.00105 | 8.07990 | 13762 ft | 362 kts | 319° |
| 2026-04-17 11:56 | 50.02025 | 8.05426 | 14262 ft | 365 kts | 319° |
| 2026-04-17 11:56 | 50.03957 | 8.02839 | 14740 ft | 368 kts | 319° |
| 2026-04-17 11:56 | 50.05905 | 8.00232 | 15190 ft | 371 kts | 319° |
| 2026-04-17 11:56 | 50.07850 | 7.97627 | 15616 ft | 374 kts | 319° |
| 2026-04-17 11:57 | 50.09828 | 7.94969 | 16034 ft | 377 kts | 319° |
| 2026-04-17 11:57 | 50.11803 | 7.92309 | 16435 ft | 380 kts | 319° |
| 2026-04-17 11:57 | 50.13824 | 7.89579 | 16827 ft | 382 kts | 319° |
| 2026-04-17 11:57 | 50.15844 | 7.86847 | 17201 ft | 385 kts | 319° |
| 2026-04-17 11:58 | 50.17876 | 7.84106 | 17562 ft | 387 kts | 319° |
| 2026-04-17 11:58 | 50.19919 | 7.81352 | 17907 ft | 390 kts | 319° |
| 2026-04-17 11:58 | 50.21976 | 7.78576 | 18244 ft | 392 kts | 319° |
| 2026-04-17 11:58 | 50.24045 | 7.75779 | 18565 ft | 394 kts | 320° |
| 2026-04-17 11:59 | 50.26306 | 7.73324 | 18867 ft | 397 kts | 331° |
| 2026-04-17 11:59 | 50.28820 | 7.71498 | 19164 ft | 400 kts | 336° |
| 2026-04-17 11:59 | 50.31373 | 7.69757 | 19462 ft | 402 kts | 336° |
| 2026-04-17 11:59 | 50.33943 | 7.68004 | 19745 ft | 404 kts | 336° |
| 2026-04-17 12:00 | 50.36523 | 7.66240 | 20021 ft | 406 kts | 336° |
| 2026-04-17 12:00 | 50.39121 | 7.64459 | 20290 ft | 408 kts | 336° |
| 2026-04-17 12:00 | 50.41726 | 7.62672 | 20545 ft | 410 kts | 336° |
| 2026-04-17 12:00 | 50.44340 | 7.60878 | 20794 ft | 411 kts | 336° |
| 2026-04-17 12:01 | 50.46945 | 7.59087 | 21030 ft | 413 kts | 336° |
| 2026-04-17 12:01 | 50.49583 | 7.57274 | 21259 ft | 415 kts | 336° |
| 2026-04-17 12:01 | 50.52236 | 7.55447 | 21483 ft | 416 kts | 336° |
| 2026-04-17 12:01 | 50.54890 | 7.53605 | 21693 ft | 418 kts | 334° |
| 2026-04-17 12:02 | 50.57421 | 7.51341 | 21900 ft | 419 kts | 326° |
| 2026-04-17 12:02 | 50.59867 | 7.48825 | 22100 ft | 421 kts | 326° |
| 2026-04-17 12:02 | 50.62329 | 7.46297 | 22293 ft | 422 kts | 326° |
| 2026-04-17 12:02 | 50.64798 | 7.43763 | 22478 ft | 424 kts | 326° |
| 2026-04-17 12:03 | 50.67279 | 7.41217 | 22662 ft | 425 kts | 326° |
| 2026-04-17 12:03 | 50.69733 | 7.38699 | 22832 ft | 427 kts | 326° |
| 2026-04-17 12:03 | 50.72187 | 7.36035 | 22997 ft | 428 kts | 320° |
| 2026-04-17 12:03 | 50.74328 | 7.32784 | 23159 ft | 428 kts | 310° |
| 2026-04-17 12:04 | 50.76061 | 7.28954 | 23313 ft | 429 kts | 299° |
| 2026-04-17 12:04 | 50.77450 | 7.24772 | 23457 ft | 430 kts | 297° |
| 2026-04-17 12:04 | 50.78820 | 7.20564 | 23597 ft | 431 kts | 297° |
| 2026-04-17 12:04 | 50.80189 | 7.16353 | 23735 ft | 432 kts | 297° |
| 2026-04-17 12:05 | 50.81563 | 7.12117 | 23865 ft | 433 kts | 297° |
| 2026-04-17 12:05 | 50.82939 | 7.07869 | 23993 ft | 434 kts | 297° |
| 2026-04-17 12:05 | 50.84315 | 7.03608 | 24119 ft | 435 kts | 296° |
| 2026-04-17 12:05 | 50.85692 | 6.99336 | 24244 ft | 436 kts | 296° |
| 2026-04-17 12:06 | 50.87072 | 6.95050 | 24369 ft | 437 kts | 296° |
| 2026-04-17 12:06 | 50.88452 | 6.90766 | 24494 ft | 437 kts | 296° |
| 2026-04-17 12:06 | 50.89838 | 6.86468 | 24619 ft | 438 kts | 296° |
| 2026-04-17 12:06 | 50.91205 | 6.82219 | 24742 ft | 438 kts | 296° |
| 2026-04-17 12:07 | 50.92587 | 6.77911 | 24867 ft | 438 kts | 296° |
| 2026-04-17 12:07 | 50.93969 | 6.73597 | 24991 ft | 438 kts | 296° |
| 2026-04-17 12:07 | 50.95349 | 6.69284 | 25116 ft | 438 kts | 296° |
| 2026-04-17 12:07 | 50.96724 | 6.64969 | 25241 ft | 438 kts | 296° |
| 2026-04-17 12:08 | 50.98096 | 6.60656 | 25365 ft | 438 kts | 296° |
| 2026-04-17 12:08 | 50.99467 | 6.56338 | 25489 ft | 437 kts | 296° |
| 2026-04-17 12:08 | 51.00830 | 6.52026 | 25613 ft | 437 kts | 296° |
| 2026-04-17 12:08 | 51.02193 | 6.47707 | 25738 ft | 437 kts | 296° |
| 2026-04-17 12:09 | 51.03551 | 6.43399 | 25862 ft | 437 kts | 296° |
| 2026-04-17 12:09 | 51.04912 | 6.39081 | 25986 ft | 436 kts | 296° |
| 2026-04-17 12:09 | 51.06270 | 6.34774 | 26111 ft | 436 kts | 296° |
| 2026-04-17 12:09 | 51.07624 | 6.30466 | 26236 ft | 435 kts | 296° |
| 2026-04-17 12:10 | 51.08974 | 6.26159 | 26361 ft | 435 kts | 296° |
| 2026-04-17 12:10 | 51.10324 | 6.21849 | 26486 ft | 435 kts | 296° |
| 2026-04-17 12:10 | 51.11673 | 6.17540 | 26610 ft | 434 kts | 296° |
| 2026-04-17 12:10 | 51.13017 | 6.13235 | 26735 ft | 434 kts | 296° |
| 2026-04-17 12:11 | 51.14180 | 6.08803 | 26859 ft | 433 kts | 287° |
| 2026-04-17 12:11 | 51.14713 | 6.05751 | 26942 ft | 433 kts | 284° |
| 2026-04-17 12:11 | 51.15460 | 6.01115 | 27067 ft | 432 kts | 284° |
| 2026-04-17 12:12 | 51.16960 | 5.91845 | 27316 ft | 432 kts | 284° |
| 2026-04-17 12:12 | 51.17712 | 5.87204 | 27441 ft | 431 kts | 284° |
| 2026-04-17 12:12 | 51.18905 | 5.81171 | 27605 ft | 431 kts | 292° |
| 2026-04-17 12:12 | 51.19694 | 5.78200 | 27690 ft | 431 kts | 292° |
| 2026-04-17 12:13 | 51.20864 | 5.73800 | 27815 ft | 431 kts | 292° |
| 2026-04-17 12:13 | 51.22029 | 5.69402 | 27940 ft | 430 kts | 292° |
| 2026-04-17 12:13 | 51.23190 | 5.65000 | 28064 ft | 430 kts | 292° |
| 2026-04-17 12:13 | 51.24348 | 5.60597 | 28189 ft | 430 kts | 292° |
| 2026-04-17 12:14 | 51.25489 | 5.56248 | 28312 ft | 429 kts | 292° |
| 2026-04-17 12:14 | 51.26657 | 5.51790 | 28438 ft | 429 kts | 292° |
| 2026-04-17 12:14 | 51.27789 | 5.47456 | 28561 ft | 429 kts | 292° |
| 2026-04-17 12:14 | 51.28933 | 5.43061 | 28686 ft | 428 kts | 292° |
| 2026-04-17 12:15 | 51.30074 | 5.38669 | 28811 ft | 428 kts | 292° |
| 2026-04-17 12:15 | 51.31218 | 5.34272 | 28936 ft | 428 kts | 292° |
| 2026-04-17 12:15 | 51.32360 | 5.29879 | 29061 ft | 427 kts | 292° |
| 2026-04-17 12:15 | 51.33498 | 5.25492 | 29186 ft | 427 kts | 292° |
| 2026-04-17 12:16 | 51.34634 | 5.21099 | 29311 ft | 427 kts | 292° |
| 2026-04-17 12:16 | 51.35762 | 5.16719 | 29436 ft | 426 kts | 292° |
| 2026-04-17 12:16 | 51.36890 | 5.12329 | 29561 ft | 426 kts | 292° |
| 2026-04-17 12:16 | 51.38012 | 5.07955 | 29686 ft | 426 kts | 292° |
| 2026-04-17 12:17 | 51.39137 | 5.03572 | 29810 ft | 425 kts | 292° |
| 2026-04-17 12:17 | 51.40260 | 4.99180 | 29935 ft | 425 kts | 292° |
| 2026-04-17 12:17 | 51.41361 | 4.94866 | 30058 ft | 425 kts | 292° |
| 2026-04-17 12:17 | 51.42474 | 4.90498 | 30182 ft | 424 kts | 292° |
| 2026-04-17 12:18 | 51.43593 | 4.86107 | 30308 ft | 424 kts | 292° |
| 2026-04-17 12:18 | 51.44700 | 4.81749 | 30432 ft | 423 kts | 291° |
| 2026-04-17 12:18 | 51.45812 | 4.77349 | 30559 ft | 423 kts | 291° |
| 2026-04-17 12:18 | 51.46912 | 4.72989 | 30683 ft | 423 kts | 291° |
| 2026-04-17 12:19 | 51.48014 | 4.68613 | 30808 ft | 422 kts | 291° |
| 2026-04-17 12:19 | 51.49117 | 4.64240 | 30933 ft | 422 kts | 291° |
| 2026-04-17 12:19 | 51.50213 | 4.59877 | 31058 ft | 421 kts | 291° |
| 2026-04-17 12:19 | 51.51306 | 4.55518 | 31183 ft | 421 kts | 291° |
| 2026-04-17 12:20 | 51.52395 | 4.51159 | 31308 ft | 420 kts | 291° |
| 2026-04-17 12:20 | 51.53483 | 4.46810 | 31433 ft | 420 kts | 291° |
| 2026-04-17 12:20 | 51.54573 | 4.42456 | 31558 ft | 419 kts | 291° |
| 2026-04-17 12:20 | 51.55642 | 4.38177 | 31682 ft | 418 kts | 291° |
| 2026-04-17 12:21 | 51.56727 | 4.33815 | 31807 ft | 418 kts | 291° |
| 2026-04-17 12:21 | 51.57797 | 4.29495 | 31961 ft | 417 kts | 291° |
| 2026-04-17 12:21 | 51.58870 | 4.25154 | 32009 ft | 418 kts | 291° |
| 2026-04-17 12:22 | 51.61035 | 4.16400 | 32009 ft | 423 kts | 291° |
| 2026-04-17 12:22 | 51.63217 | 4.07545 | 32009 ft | 428 kts | 291° |
| 2026-04-17 12:23 | 51.65408 | 3.98580 | 32009 ft | 432 kts | 291° |
| 2026-04-17 12:23 | 51.67612 | 3.89536 | 32009 ft | 435 kts | 291° |
| 2026-04-17 12:24 | 51.69821 | 3.80416 | 32009 ft | 438 kts | 291° |
| 2026-04-17 12:24 | 51.72024 | 3.71295 | 32009 ft | 441 kts | 291° |
| 2026-04-17 12:25 | 51.74256 | 3.62058 | 32009 ft | 443 kts | 291° |
| 2026-04-17 12:25 | 51.76489 | 3.52769 | 32009 ft | 444 kts | 290° |
| 2026-04-17 12:26 | 51.78708 | 3.43438 | 32009 ft | 446 kts | 290° |
| 2026-04-17 12:26 | 51.80938 | 3.34059 | 32009 ft | 447 kts | 290° |
| 2026-04-17 12:27 | 51.83161 | 3.24653 | 32009 ft | 448 kts | 290° |
| 2026-04-17 12:27 | 51.84582 | 3.14881 | 32009 ft | 448 kts | 272° |
| 2026-04-17 12:28 | 51.84134 | 3.04887 | 32009 ft | 449 kts | 264° |
| 2026-04-17 12:28 | 51.83470 | 2.94838 | 32009 ft | 449 kts | 263° |
| 2026-04-17 12:29 | 51.82804 | 2.84785 | 32009 ft | 450 kts | 263° |
| 2026-04-17 12:29 | 51.82127 | 2.74717 | 32009 ft | 451 kts | 263° |
| 2026-04-17 12:30 | 51.81444 | 2.64631 | 32009 ft | 451 kts | 263° |
| 2026-04-17 12:30 | 51.80749 | 2.54551 | 32009 ft | 452 kts | 263° |
| 2026-04-17 12:31 | 51.80044 | 2.44447 | 32009 ft | 452 kts | 263° |
| 2026-04-17 12:31 | 51.79328 | 2.34334 | 32009 ft | 453 kts | 263° |
| 2026-04-17 12:32 | 51.78601 | 2.24231 | 31740 ft | 453 kts | 263° |
| 2026-04-17 12:32 | 51.78243 | 2.19177 | 31122 ft | 451 kts | 263° |
| 2026-04-17 12:32 | 51.77924 | 2.14163 | 30598 ft | 446 kts | 264° |
| 2026-04-17 12:32 | 51.77641 | 2.09260 | 30079 ft | 442 kts | 264° |
| 2026-04-17 12:33 | 51.77369 | 2.04335 | 29569 ft | 438 kts | 264° |
| 2026-04-17 12:33 | 51.77101 | 1.99459 | 29067 ft | 433 kts | 264° |
| 2026-04-17 12:33 | 51.76829 | 1.94631 | 28577 ft | 429 kts | 264° |
| 2026-04-17 12:33 | 51.76552 | 1.89863 | 28096 ft | 425 kts | 264° |
| 2026-04-17 12:34 | 51.76267 | 1.85145 | 27609 ft | 421 kts | 264° |
| 2026-04-17 12:34 | 51.75978 | 1.80470 | 27122 ft | 417 kts | 264° |
| 2026-04-17 12:34 | 51.75687 | 1.75826 | 26629 ft | 414 kts | 264° |
| 2026-04-17 12:34 | 51.75395 | 1.71224 | 26131 ft | 410 kts | 264° |
| 2026-04-17 12:35 | 51.75105 | 1.66663 | 25623 ft | 407 kts | 264° |
| 2026-04-17 12:35 | 51.74819 | 1.62133 | 25148 ft | 403 kts | 264° |
| 2026-04-17 12:35 | 51.74538 | 1.57681 | 24978 ft | 395 kts | 264° |
| 2026-04-17 12:35 | 51.74260 | 1.53286 | 25009 ft | 393 kts | 264° |
| 2026-04-17 12:37 | 51.72267 | 1.22611 | 25009 ft | 393 kts | 263° |
| 2026-04-17 12:37 | 51.71973 | 1.18234 | 24749 ft | 391 kts | 263° |
| 2026-04-17 12:38 | 51.71678 | 1.13865 | 23421 ft | 396 kts | 263° |
| 2026-04-17 12:38 | 51.71377 | 1.09431 | 22295 ft | 397 kts | 263° |
| 2026-04-17 12:38 | 51.71077 | 1.05034 | 21353 ft | 393 kts | 263° |
| 2026-04-17 12:38 | 51.70777 | 1.00686 | 20455 ft | 387 kts | 263° |
| 2026-04-17 12:39 | 51.70484 | 0.96410 | 19577 ft | 381 kts | 263° |
| 2026-04-17 12:39 | 51.70200 | 0.92252 | 18727 ft | 375 kts | 263° |
| 2026-04-17 12:39 | 51.69915 | 0.88104 | 17884 ft | 369 kts | 263° |
| 2026-04-17 12:39 | 51.69631 | 0.84027 | 17054 ft | 364 kts | 263° |
| 2026-04-17 12:40 | 51.69348 | 0.80004 | 16240 ft | 358 kts | 263° |
| 2026-04-17 12:40 | 51.69065 | 0.76041 | 15444 ft | 353 kts | 263° |
| 2026-04-17 12:40 | 51.68784 | 0.72137 | 14650 ft | 348 kts | 263° |
| 2026-04-17 12:40 | 51.68507 | 0.68292 | 13865 ft | 343 kts | 263° |
| 2026-04-17 12:41 | 51.68235 | 0.64485 | 13121 ft | 341 kts | 263° |
| 2026-04-17 12:41 | 51.67968 | 0.60728 | 12401 ft | 334 kts | 263° |
| 2026-04-17 12:41 | 51.67710 | 0.57113 | 12027 ft | 317 kts | 263° |
| 2026-04-17 12:41 | 51.67460 | 0.53627 | 11439 ft | 310 kts | 263° |
| 2026-04-17 12:42 | 51.67213 | 0.50205 | 10780 ft | 306 kts | 263° |
| 2026-04-17 12:42 | 51.66966 | 0.46825 | 10123 ft | 301 kts | 263° |
| 2026-04-17 12:42 | 51.66725 | 0.43551 | 9692 ft | 296 kts | 263° |
| 2026-04-17 12:42 | 51.66482 | 0.40275 | 9294 ft | 294 kts | 263° |
| 2026-04-17 12:43 | 51.66239 | 0.37013 | 8894 ft | 292 kts | 263° |
| 2026-04-17 12:43 | 51.65999 | 0.33764 | 8494 ft | 292 kts | 263° |
| 2026-04-17 12:43 | 51.65760 | 0.30523 | 8097 ft | 290 kts | 263° |
| 2026-04-17 12:43 | 51.65522 | 0.27314 | 7703 ft | 288 kts | 263° |
| 2026-04-17 12:44 | 51.65283 | 0.24127 | 7316 ft | 286 kts | 263° |
| 2026-04-17 12:44 | 51.65047 | 0.21009 | 7166 ft | 274 kts | 263° |
| 2026-04-17 12:44 | 51.64821 | 0.18024 | 7043 ft | 262 kts | 263° |
| 2026-04-17 12:44 | 51.64599 | 0.15178 | 7002 ft | 250 kts | 262° |
| 2026-04-17 12:45 | 51.64339 | 0.12247 | 7009 ft | 275 kts | 261° |
| 2026-04-17 12:45 | 51.63982 | 0.09196 | 7003 ft | 274 kts | 249° |
| 2026-04-17 12:45 | 51.63072 | 0.06665 | 7005 ft | 254 kts | 233° |
| 2026-04-17 12:45 | 51.62008 | 0.04446 | 7007 ft | 249 kts | 231° |
| 2026-04-17 12:46 | 51.60934 | 0.02271 | 7008 ft | 248 kts | 231° |
| 2026-04-17 12:46 | 51.59860 | 0.00105 | 7008 ft | 248 kts | 231° |
| 2026-04-17 12:46 | 51.58940 | -0.02216 | 7004 ft | 247 kts | 251° |
| 2026-04-17 12:46 | 51.58704 | -0.04862 | 7007 ft | 232 kts | 269° |
| 2026-04-17 12:47 | 51.58716 | -0.07361 | 7003 ft | 215 kts | 271° |
| 2026-04-17 12:47 | 51.58754 | -0.09662 | 6883 ft | 205 kts | 271° |
| 2026-04-17 12:47 | 51.58796 | -0.11930 | 6652 ft | 201 kts | 271° |
| 2026-04-17 12:47 | 51.58840 | -0.14170 | 6348 ft | 199 kts | 271° |
| 2026-04-17 12:48 | 51.58882 | -0.16391 | 5988 ft | 199 kts | 271° |
| 2026-04-17 12:48 | 51.58925 | -0.18624 | 5658 ft | 198 kts | 271° |
| 2026-04-17 12:48 | 51.58924 | -0.20829 | 5335 ft | 196 kts | 260° |
| 2026-04-17 12:48 | 51.58302 | -0.22719 | 5022 ft | 193 kts | 221° |
| 2026-04-17 12:49 | 51.57090 | -0.23537 | 4701 ft | 192 kts | 182° |
| 2026-04-17 12:49 | 51.55832 | -0.22930 | 4375 ft | 193 kts | 143° |
| 2026-04-17 12:49 | 51.55083 | -0.21179 | 4036 ft | 193 kts | 109° |
| 2026-04-17 12:49 | 51.54757 | -0.19085 | 3854 ft | 194 kts | 102° |
| 2026-04-17 12:50 | 51.54498 | -0.16956 | 3850 ft | 195 kts | 102° |
| 2026-04-17 12:50 | 51.53930 | -0.15019 | 3846 ft | 193 kts | 136° |
| 2026-04-17 12:50 | 51.52756 | -0.14073 | 3854 ft | 191 kts | 172° |
| 2026-04-17 12:50 | 51.51427 | -0.13937 | 3839 ft | 191 kts | 180° |
| 2026-04-17 12:51 | 51.50136 | -0.13938 | 3440 ft | 187 kts | 181° |
| 2026-04-17 12:51 | 51.48856 | -0.14216 | 2931 ft | 186 kts | 207° |
| 2026-04-17 12:51 | 51.47951 | -0.15640 | 2861 ft | 186 kts | 236° |
| 2026-04-17 12:51 | 51.47287 | -0.17433 | 2860 ft | 187 kts | 240° |
| 2026-04-17 12:52 | 51.46696 | -0.19263 | 2846 ft | 177 kts | 250° |
| 2026-04-17 12:52 | 51.46527 | -0.21116 | 2758 ft | 161 kts | 269° |
| 2026-04-17 12:52 | 51.46528 | -0.22811 | 2578 ft | 149 kts | 269° |
| 2026-04-17 12:52 | 51.46527 | -0.24485 | 2386 ft | 145 kts | 269° |
| 2026-04-17 12:53 | 51.46526 | -0.26098 | 2205 ft | 144 kts | 269° |
| 2026-04-17 12:53 | 51.46524 | -0.27693 | 2009 ft | 143 kts | 269° |
| 2026-04-17 12:53 | 51.46522 | -0.29285 | 1832 ft | 142 kts | 269° |
| 2026-04-17 12:53 | 51.46519 | -0.30871 | 1637 ft | 142 kts | 269° |
| 2026-04-17 12:54 | 51.46517 | -0.32445 | 1448 ft | 141 kts | 269° |
| 2026-04-17 12:54 | 51.46515 | -0.34019 | 1260 ft | 141 kts | 269° |
| 2026-04-17 12:54 | 51.46512 | -0.35584 | 1075 ft | 140 kts | 269° |
| 2026-04-17 12:54 | 51.46512 | -0.37127 | 889 ft | 140 kts | 269° |
| 2026-04-17 12:55 | 51.46502 | -0.38685 | 698 ft | 140 kts | 268° |
| 2026-04-17 12:55 | 51.46496 | -0.40233 | 460 ft | 138 kts | 270° |
| 2026-04-17 12:55 | 51.46495 | -0.41768 | 325 ft | 138 kts | 268° |
| 2026-04-17 12:55 | 51.46493 | -0.43306 | 165 ft | 138 kts | 269° |
| 2026-04-17 12:56 | 51.46489 | -0.44785 | 90 ft | 119 kts | 269° |
| 2026-04-17 12:56 | 51.46487 | -0.45829 | 86 ft | 69 kts | 270° |
| 2026-04-17 12:56 | 51.46488 | -0.46413 | 89 ft | 35 kts | 272° |
| 2026-04-17 12:56 | 51.46539 | -0.46731 | 88 ft | 19 kts | 297° |
| 2026-04-17 12:57 | 51.46616 | -0.46853 | 87 ft | 14 kts | 342° |
| 2026-04-17 12:57 | 51.46703 | -0.46860 | 86 ft | 11 kts | 9° |
| 2026-04-17 12:57 | 51.46749 | -0.46788 | 86 ft | 9 kts | 82° |
| 2026-04-17 12:57 | 51.46749 | -0.46693 | 86 ft | 8 kts | 89° |
| 2026-04-17 12:58 | 51.46749 | -0.46637 | 86 ft | 7 kts | 89° |
| 2026-04-17 12:58 | 51.46750 | -0.46485 | 86 ft | 11 kts | 90° |
| 2026-04-17 12:58 | 51.46750 | -0.46367 | 86 ft | 10 kts | 90° |
| 2026-04-17 12:58 | 51.46749 | -0.46292 | 86 ft | 9 kts | 90° |
| 2026-04-17 12:59 | 51.46749 | -0.46126 | 86 ft | 18 kts | 90° |
| 2026-04-17 12:59 | 51.46748 | -0.45982 | 86 ft | 20 kts | 91° |
| 2026-04-17 12:59 | 51.46748 | -0.45747 | 86 ft | 22 kts | 88° |
| 2026-04-17 12:59 | 51.46750 | -0.45491 | 86 ft | 24 kts | 89° |
| 2026-04-17 13:00 | 51.46752 | -0.45214 | 86 ft | 26 kts | 90° |
| 2026-04-17 13:00 | 51.46751 | -0.44954 | 86 ft | 21 kts | 90° |
| 2026-04-17 13:00 | 51.46751 | -0.44812 | 86 ft | 6 kts | 90° |
| 2026-04-17 13:00 | 51.46751 | -0.44750 | 86 ft | 5 kts | 89° |
| 2026-04-17 13:01 | 51.46752 | -0.44697 | 86 ft | 5 kts | 89° |
| 2026-04-17 13:01 | 51.46769 | -0.44569 | 86 ft | 16 kts | 46° |
| 2026-04-17 13:01 | 51.46851 | -0.44554 | 86 ft | 8 kts | 349° |
| 2026-04-17 13:01 | 51.46860 | -0.44611 | 86 ft | 5 kts | 268° |
| 2026-04-17 13:02 | 51.46858 | -0.44658 | 86 ft | 4 kts | 266° |
| 2026-04-17 13:02 | 51.46858 | -0.44680 | 86 ft | 0 kts | 266° |